FNHU/NOV METAR and TAF weather

Enter ICAO airport designator
Station Type Date Time Source
FNHU METAR 2018/10/22 15:00 UTC NOAA

FNHU 221500Z 16006KT 7000 -RA BKN017 SCT090 16/15 Q1021


Station Type Date Time Source
FNHU Decoded METAR 2018/10/22 15:00 UTC NOAA

Huambo Nova Lisboa , Angola (FNHU) 12-48S 015-45E 1701M
Oct 22, 2018 - 11:00 AM EDT / 2018.10.22 1500 UTC
Wind: from the SSE (160 degrees) at 7 MPH (6 KT):0
Visibility: 4 mile(s):0
Sky conditions: mostly cloudy
Weather: light rain
Temperature: 60 F (16 C)
Dew Point: 59 F (15 C)
Relative Humidity: 93%
Pressure (altimeter): 30.15 in. Hg (1021 hPa)
ob: FNHU 221500Z 16006KT 7000 -RA BKN017 SCT090 16/15 Q1021
cycle: 15

Station Type Date Time Source
FNHU TAF 2018/10/22 12:45 UTC NOAA

TAF FNHU 221045Z 2212/2224 14010KT 7000 FEW013 BKN030 PROB30
TEMPO 2212/2216 08013KT 5000 -TSRA SCT006 FEW013CB BKN018
BECMG 2218/2221 VRB03KT 2000 +TSRA BKN012 FEW012CB


Example: see airport list